ADDS METAR Data INFO
IDs: Format: Raw Decoded Include TAF

Data at: 0030 UTC 11 Dec 2017

KCFD 110015Z AUTO 19004KT 10SM CLR 13/00 A3037 RMK AO2 T01290001
KCFD 102355Z AUTO 19003KT 10SM CLR 12/01 A3037 RMK AO2 T01220011 10184 20119
KCFD 102335Z AUTO 00000KT 10SM CLR 14/01 A3036 RMK AO2 T01380007
KCFD 102315Z AUTO 00000KT 10SM CLR 16/00 A3036 RMK AO2 T01601003
KCFD 102255Z AUTO 20003KT 10SM CLR 17/00 A3036 RMK AO2 T01681002
KCFD 102235Z AUTO 00000KT 10SM CLR 18/00 A3036 RMK AO2 T01751005
KCFD 102215Z AUTO 00000KT 10SM CLR 18/M01 A3037 RMK AO2 T01751007
KCFD 102155Z AUTO 28003KT 10SM CLR 18/M02 A3036 RMK AO2 T01751018
KCFD 102135Z AUTO 00000KT 10SM CLR 18/M01 A3037 RMK AO2 T01821013
KCFD 102115Z AUTO 23003KT 10SM CLR 18/M01 A3037 RMK AO2 T01821012
KCFD 102055Z AUTO 23006KT 10SM CLR 18/M01 A3038 RMK AO2 T01841006
KCFD 102035Z AUTO 00000KT 10SM CLR 18/M01 A3038 RMK AO2 T01801007
KCFD 102015Z AUTO 28004KT 10SM CLR 18/00 A3038 RMK AO2 T01791002
KCFD 101955Z AUTO 23005KT 10SM CLR 17/00 A3039 RMK AO2 T01740000
KCFD 101935Z AUTO 28003KT 10SM CLR 17/M01 A3039 RMK AO2 T01711006
KCFD 101915Z AUTO 25007KT 10SM CLR 17/M01 A3040 RMK AO2 T01681012
KCFD 101855Z AUTO 23006KT 10SM CLR 17/M01 A3042 RMK AO2 T01651008
KCFD 101835Z AUTO 26004KT 10SM CLR 16/M01 A3043 RMK AO2 T01581010
KCFD 101815Z AUTO 24005KT 10SM CLR 15/M01 A3044 RMK AO2 T01531009
KCFD 101755Z AUTO 28004KT 10SM CLR 15/M02 A3045 RMK AO2 T01511019 10152 21001
KCFD 101735Z AUTO 23004KT 10SM CLR 14/M01 A3046 RMK AO2 T01441015
KCFD 101715Z AUTO 25006KT 10SM CLR 14/M01 A3047 RMK AO2 T01391013
KCFD 101655Z AUTO 25005KT 10SM CLR 14/M01 A3047 RMK AO2 T01351007
KCFD 101635Z AUTO 28004KT 10SM CLR 12/M01 A3047 RMK AO2 T01211013
KCFD 101615Z AUTO 29006KT 10SM CLR 12/00 A3047 RMK AO2 T01200003
KCFD 101555Z AUTO 29004KT 10SM CLR 11/00 A3047 RMK AO2 T01110002
KCFD 101535Z AUTO 00000KT 10SM CLR 09/00 A3047 RMK AO2 T00940003
KCFD 101515Z AUTO 00000KT 10SM CLR 08/00 A3047 RMK AO2 T00810000
KCFD 101455Z AUTO 28003KT 10SM CLR 07/00 A3046 RMK AO2 T00670003
KCFD 101435Z AUTO 29003KT 10SM CLR 06/M01 A3045 RMK AO2 T00571008
KCFD 101415Z AUTO 00000KT 10SM CLR 04/M01 A3045 RMK AO2 T00411014
KCFD 101355Z AUTO 26003KT 10SM CLR 03/M02 A3044 RMK AO2 T00261017
KCFD 101335Z AUTO 00000KT 10SM CLR 00/M01 A3043 RMK AO2 T00011009
KCFD 101315Z AUTO 26003KT 10SM CLR 00/M01 A3043 RMK AO2 T10011013
KCFD 101255Z AUTO 00000KT 10SM CLR 01/M02 A3042 RMK AO2 T00131023
KCFD 101235Z AUTO 00000KT 10SM CLR 01/M03 A3041 RMK AO2 T00101026
KCFD 101215Z AUTO 30003KT 10SM CLR 02/M02 A3041 RMK AO2 T00161025
KCFD 101155Z AUTO 30004KT 10SM CLR 02/M02 A3041 RMK AO2 T00241025 10068 21001
KCFD 101135Z AUTO 30004KT 10SM CLR 02/M02 A3040 RMK AO2 T00211025
KCFD 101115Z AUTO 29005KT 10SM CLR 02/M02 A3040 RMK AO2 T00211021
KCFD 101055Z AUTO 28005KT 10SM CLR 02/M02 A3039 RMK AO2 T00211021
KCFD 101035Z AUTO 27003KT 10SM CLR 02/M02 A3040 RMK AO2 T00221021
KCFD 101015Z AUTO 00000KT 10SM CLR 01/M01 A3040 RMK AO2 T00081015
KCFD 100955Z AUTO 27003KT 10SM CLR 03/M02 A3040 RMK AO2 T00251021
KCFD 100935Z AUTO 00000KT 10SM CLR 01/M02 A3040 RMK AO2 T00121016
KCFD 100915Z AUTO 28003KT 10SM CLR 03/M02 A3040 RMK AO2 T00281024
KCFD 100855Z AUTO 30004KT 10SM CLR 03/M02 A3039 RMK AO2 T00261020
KCFD 100835Z AUTO 30003KT 10SM CLR 02/M02 A3039 RMK AO2 T00241019
KCFD 100815Z AUTO 00000KT 10SM CLR 04/M02 A3040 RMK AO2 T00391021
KCFD 100750Z AUTO 33003KT 10SM CLR 04/M02 A3039 RMK AO2 T00391025
KCFD 100735Z AUTO 36003KT 10SM CLR 06/M03 A3039 RMK AO2 T00561031
KCFD 100715Z AUTO 35004KT 10SM CLR 06/M03 A3039 RMK AO2 T00561030
KCFD 100655Z AUTO 36003KT 10SM CLR 04/M02 A3039 RMK AO2 T00421024
KCFD 100635Z AUTO 33003KT 10SM CLR 04/M03 A3039 RMK AO2 T00431027
KCFD 100615Z AUTO 34004KT 10SM CLR 07/M03 A3039 RMK AO2 T00661031
KCFD 100555Z AUTO 34004KT 10SM CLR 07/M03 A3039 RMK AO2 T00691030 10121 20041 401681008
KCFD 100535Z AUTO 32004KT 10SM CLR 06/M02 A3039 RMK AO2 T00551023
KCFD 100515Z AUTO 32004KT 10SM CLR 06/M02 A3039 RMK AO2 T00611022
KCFD 100455Z AUTO 33005KT 10SM CLR 07/M02 A3039 RMK AO2 T00651023
KCFD 100435Z AUTO 33005KT 10SM CLR 07/M02 A3038 RMK AO2 T00701025
KCFD 100415Z AUTO 34005KT 10SM CLR 07/M02 A3037 RMK AO2 T00711022
KCFD 100355Z AUTO 33005KT 10SM CLR 07/M02 A3036 RMK AO2 T00731023
KCFD 100335Z AUTO 33005KT 10SM CLR 08/M03 A3036 RMK AO2 T00791027
KCFD 100315Z AUTO 34004KT 10SM CLR 08/M03 A3036 RMK AO2 T00841028
KCFD 100255Z AUTO 33004KT 10SM CLR 08/M03 A3035 RMK AO2 T00831026
KCFD 100235Z AUTO 00000KT 10SM CLR 08/M02 A3034 RMK AO2 T00821025
KCFD 100215Z AUTO 00000KT 10SM CLR 07/M02 A3033 RMK AO2 T00651019
KCFD 100155Z AUTO 34004KT 10SM CLR 10/M03 A3033 RMK AO2 T01001030
KCFD 100135Z AUTO 33003KT 10SM CLR 10/M03 A3032 RMK AO2 T01021029
KCFD 100115Z AUTO 32004KT 10SM CLR 10/M02 A3031 RMK AO2 T00981021
KCFD 100055Z AUTO 32003KT 10SM CLR 11/M02 A3030 RMK AO2 T01051022
KCFD 100035Z AUTO 32004KT 10SM CLR 12/M02 A3030 RMK AO2 T01151025
KCFD 100015Z AUTO 00000KT 10SM CLR 11/M02 A3029 RMK AO2 T01141020
KCFD 092355Z AUTO 30003KT 10SM CLR 12/M02 A3028 RMK AO2 T01201023 10168 20120
KCFD 092335Z AUTO 32003KT 10SM CLR 13/M02 A3028 RMK AO2 T01311023
KCFD 092315Z AUTO 31003KT 10SM CLR 14/M02 A3027 RMK AO2 T01391023
KCFD 092255Z AUTO 32006KT 10SM CLR 15/M02 A3026 RMK AO2 T01501025
KCFD 092235Z AUTO 31008KT 10SM CLR 16/M03 A3026 RMK AO2 T01571026
KCFD 092215Z AUTO 31010KT 10SM CLR 16/M03 A3025 RMK AO2 T01601028
KCFD 092155Z AUTO 33009KT 10SM CLR 16/M03 A3025 RMK AO2 T01611028
KCFD 092135Z AUTO 32006KT 10SM CLR 16/M02 A3025 RMK AO2 T01641025
KCFD 092115Z AUTO 31012G17KT 10SM CLR 17/M02 A3025 RMK AO2 T01651023
KCFD 092055Z AUTO 31009G14KT 10SM CLR 17/M02 A3024 RMK AO2 T01661022
KCFD 092035Z AUTO 33012G17KT 10SM CLR 17/M02 A3024 RMK AO2 T01661022
KCFD 092015Z AUTO 33010G15KT 10SM CLR 16/M02 A3024 RMK AO2 T01641022
KCFD 091955Z AUTO 33012G15KT 10SM CLR 16/M02 A3024 RMK AO2 T01621024
KCFD 091935Z AUTO 34010KT 10SM CLR 16/M02 A3025 RMK AO2 T01571020
KCFD 091915Z AUTO 33008KT 10SM CLR 15/M02 A3025 RMK AO2 T01521019
KCFD 091855Z AUTO 31009G14KT 10SM CLR 15/M02 A3026 RMK AO2 T01501019
KCFD 091835Z AUTO 35009KT 10SM CLR 14/M02 A3027 RMK AO2 T01421017
KCFD 091815Z AUTO 33007KT 10SM CLR 14/M02 A3028 RMK AO2 T01401016
KCFD 091755Z AUTO 32011G15KT 10SM CLR 14/M01 A3028 RMK AO2 T01371014 10137 21002
KCFD 091735Z AUTO 32011G14KT 10SM CLR 13/M01 A3030 RMK AO2 T01281014
KCFD 091715Z AUTO 33010KT 10SM CLR 12/M01 A3031 RMK AO2 T01241006
KCFD 091655Z AUTO 33010KT 10SM CLR 11/M01 A3031 RMK AO2 T01121007
KCFD 091635Z AUTO 33004KT 10SM CLR 10/00 A3031 RMK AO2 T00951001
KCFD 091615Z AUTO 32008KT 10SM CLR 08/00 A3031 RMK AO2 T00840001
KCFD 091555Z AUTO 30007KT 10SM CLR 07/00 A3031 RMK AO2 T00740001
KCFD 091535Z AUTO 31006KT 10SM CLR 06/00 A3029 RMK AO2 T00630000
KCFD 091515Z AUTO 32008KT 10SM CLR 05/00 A3029 RMK AO2 T00460000
KCFD 091455Z AUTO 31009KT 10SM CLR 03/00 A3028 RMK AO2 T00340002
KCFD 091435Z AUTO 30007KT 10SM CLR 03/00 A3027 RMK AO2 T00250004
KCFD 091415Z AUTO 29005KT 10SM CLR 01/00 A3026 RMK AO2 T00140003
KCFD 091355Z AUTO 27003KT 10SM CLR 01/00 A3025 RMK AO2 T00060000
KCFD 091335Z AUTO 00000KT 10SM CLR 00/00 A3025 RMK AO2 T00010000
KCFD 091315Z AUTO 27003KT 10SM CLR 00/00 A3024 RMK AO2 T10021002
KCFD 091255Z AUTO 26003KT 10SM CLR 00/00 A3023 RMK AO2 T00000000
KCFD 091235Z AUTO 24003KT 10SM CLR 00/00 A3022 RMK AO2 T00010000